sensor_id;sensor_type;location;lat;lon;timestamp;pressure;altitude;pressure_sealevel;temperature;humidity
37291;BME280;23175;-33.706;151.094;2022-12-29T00:01:23;99938.07;;;18.32;52.31
37291;BME280;23175;-33.706;151.094;2022-12-29T00:03:54;99940.29;;;18.02;53.71
37291;BME280;23175;-33.706;151.094;2022-12-29T00:06:24;99941.97;;;18.00;52.74
37291;BME280;23175;-33.706;151.094;2022-12-29T00:08:54;99938.97;;;18.19;52.73
37291;BME280;23175;-33.706;151.094;2022-12-29T00:11:26;99930.14;;;19.66;49.71
37291;BME280;23175;-33.706;151.094;2022-12-29T00:13:56;99926.82;;;20.96;47.66
37291;BME280;23175;-33.706;151.094;2022-12-29T00:16:27;99932.58;;;19.71;48.98
37291;BME280;23175;-33.706;151.094;2022-12-29T00:18:57;99927.89;;;19.60;48.89
37291;BME280;23175;-33.706;151.094;2022-12-29T00:21:28;99917.99;;;20.30;47.87
37291;BME280;23175;-33.706;151.094;2022-12-29T00:23:58;99923.38;;;20.85;47.29
37291;BME280;23175;-33.706;151.094;2022-12-29T00:26:28;99935.81;;;19.60;49.05
37291;BME280;23175;-33.706;151.094;2022-12-29T00:28:58;99945.77;;;19.00;49.73
37291;BME280;23175;-33.706;151.094;2022-12-29T00:31:28;99949.64;;;17.54;51.53
37291;BME280;23175;-33.706;151.094;2022-12-29T00:33:58;99949.52;;;19.24;49.32
37291;BME280;23175;-33.706;151.094;2022-12-29T00:36:35;99949.16;;;19.27;48.40
37291;BME280;23175;-33.706;151.094;2022-12-29T00:39:09;99946.07;;;18.90;51.20
37291;BME280;23175;-33.706;151.094;2022-12-29T00:41:40;99933.41;;;16.13;54.83
37291;BME280;23175;-33.706;151.094;2022-12-29T00:44:11;99933.01;;;19.16;50.55
37291;BME280;23175;-33.706;151.094;2022-12-29T00:46:43;99930.73;;;19.15;50.33
37291;BME280;23175;-33.706;151.094;2022-12-29T00:49:14;99934.13;;;18.58;51.25
37291;BME280;23175;-33.706;151.094;2022-12-29T00:51:45;99931.79;;;18.83;50.96
37291;BME280;23175;-33.706;151.094;2022-12-29T00:54:16;99925.78;;;20.38;47.78
37291;BME280;23175;-33.706;151.094;2022-12-29T00:56:48;99933.34;;;17.28;52.15
37291;BME280;23175;-33.706;151.094;2022-12-29T00:59:19;99942.20;;;18.61;49.48
37291;BME280;23175;-33.706;151.094;2022-12-29T01:01:50;99946.74;;;20.49;46.49
37291;BME280;23175;-33.706;151.094;2022-12-29T01:04:22;99946.36;;;17.63;51.12
37291;BME280;23175;-33.706;151.094;2022-12-29T01:06:52;99946.01;;;18.75;49.14
37291;BME280;23175;-33.706;151.094;2022-12-29T01:09:22;99945.90;;;17.24;52.16
37291;BME280;23175;-33.706;151.094;2022-12-29T01:11:53;99953.58;;;19.06;48.57
37291;BME280;23175;-33.706;151.094;2022-12-29T01:14:23;99963.73;;;18.75;50.36
37291;BME280;23175;-33.706;151.094;2022-12-29T01:16:54;99966.47;;;18.41;50.78
37291;BME280;23175;-33.706;151.094;2022-12-29T01:19:24;99971.95;;;21.19;45.58
37291;BME280;23175;-33.706;151.094;2022-12-29T01:21:54;99974.65;;;17.58;50.85
37291;BME280;23175;-33.706;151.094;2022-12-29T01:24:25;99978.55;;;19.91;46.63
37291;BME280;23175;-33.706;151.094;2022-12-29T01:26:55;99978.07;;;20.42;46.22
37291;BME280;23175;-33.706;151.094;2022-12-29T01:29:26;99977.32;;;18.81;49.07
37291;BME280;23175;-33.706;151.094;2022-12-29T01:31:56;99969.05;;;16.66;53.13
37291;BME280;23175;-33.706;151.094;2022-12-29T01:34:31;99955.04;;;17.53;52.12
37291;BME280;23175;-33.706;151.094;2022-12-29T01:37:02;99937.15;;;17.54;51.89
37291;BME280;23175;-33.706;151.094;2022-12-29T01:39:32;99925.87;;;17.27;51.19
37291;BME280;23175;-33.706;151.094;2022-12-29T01:42:02;99939.51;;;19.50;48.57
37291;BME280;23175;-33.706;151.094;2022-12-29T01:45:10;99960.25;;;18.95;49.08
37291;BME280;23175;-33.706;151.094;2022-12-29T01:47:43;99964.33;;;18.76;49.39
37291;BME280;23175;-33.706;151.094;2022-12-29T01:50:16;99962.21;;;19.65;48.47
37291;BME280;23175;-33.706;151.094;2022-12-29T01:52:56;99957.50;;;20.42;46.88
37291;BME280;23175;-33.706;151.094;2022-12-29T01:55:37;99969.12;;;18.53;49.14
37291;BME280;23175;-33.706;151.094;2022-12-29T01:58:18;99967.52;;;19.31;48.77
37291;BME280;23175;-33.706;151.094;2022-12-29T02:00:49;99959.37;;;17.76;50.63
37291;BME280;23175;-33.706;151.094;2022-12-29T02:03:21;99954.89;;;18.78;48.54
37291;BME280;23175;-33.706;151.094;2022-12-29T02:05:56;99949.90;;;20.40;46.94
37291;BME280;23175;-33.706;151.094;2022-12-29T02:08:29;99947.01;;;17.86;50.72
37291;BME280;23175;-33.706;151.094;2022-12-29T02:11:01;99949.43;;;18.97;49.03
37291;BME280;23175;-33.706;151.094;2022-12-29T02:13:38;99943.23;;;17.35;51.79
37291;BME280;23175;-33.706;151.094;2022-12-29T02:16:17;99950.13;;;20.58;46.72
37291;BME280;23175;-33.706;151.094;2022-12-29T02:18:58;99961.23;;;19.21;48.84
37291;BME280;23175;-33.706;151.094;2022-12-29T02:22:02;99970.31;;;18.59;48.65
37291;BME280;23175;-33.706;151.094;2022-12-29T02:25:10;99978.65;;;20.02;46.89
37291;BME280;23175;-33.706;151.094;2022-12-29T02:27:54;99981.00;;;19.75;47.33
37291;BME280;23175;-33.706;151.094;2022-12-29T02:30:40;99975.19;;;20.94;45.78
37291;BME280;23175;-33.706;151.094;2022-12-29T02:33:23;99975.97;;;19.50;47.64
37291;BME280;23175;-33.706;151.094;2022-12-29T02:36:05;99971.08;;;19.76;46.46
37291;BME280;23175;-33.706;151.094;2022-12-29T02:38:50;99966.47;;;19.74;46.42
37291;BME280;23175;-33.706;151.094;2022-12-29T02:41:33;99966.55;;;19.01;48.17
37291;BME280;23175;-33.706;151.094;2022-12-29T02:44:10;99956.22;;;18.70;48.55
37291;BME280;23175;-33.706;151.094;2022-12-29T02:46:48;99952.26;;;18.71;48.46
37291;BME280;23175;-33.706;151.094;2022-12-29T02:49:33;99953.60;;;19.60;47.09
37291;BME280;23175;-33.706;151.094;2022-12-29T02:52:08;99947.51;;;19.86;47.24
37291;BME280;23175;-33.706;151.094;2022-12-29T02:54:41;99953.85;;;20.06;46.52
37291;BME280;23175;-33.706;151.094;2022-12-29T02:57:27;99952.79;;;22.32;43.04
37291;BME280;23175;-33.706;151.094;2022-12-29T03:00:01;99955.58;;;20.22;46.29
37291;BME280;23175;-33.706;151.094;2022-12-29T03:02:48;99954.27;;;20.79;45.10
37291;BME280;23175;-33.706;151.094;2022-12-29T03:05:34;99956.23;;;21.61;43.34
37291;BME280;23175;-33.706;151.094;2022-12-29T03:08:20;99965.79;;;17.71;48.61
37291;BME280;23175;-33.706;151.094;2022-12-29T03:10:59;99968.96;;;20.57;44.78
37291;BME280;23175;-33.706;151.094;2022-12-29T03:13:34;99970.76;;;20.70;45.10
37291;BME280;23175;-33.706;151.094;2022-12-29T03:16:11;99967.92;;;19.06;46.45
37291;BME280;23175;-33.706;151.094;2022-12-29T03:18:49;99955.66;;;17.90;48.37
37291;BME280;23175;-33.706;151.094;2022-12-29T03:21:33;99955.02;;;17.59;49.65
37291;BME280;23175;-33.706;151.094;2022-12-29T03:24:05;99947.89;;;22.21;43.38
37291;BME280;23175;-33.706;151.094;2022-12-29T03:26:36;99945.29;;;21.49;43.61
37291;BME280;23175;-33.706;151.094;2022-12-29T03:29:08;99950.39;;;19.41;46.64
37291;BME280;23175;-33.706;151.094;2022-12-29T03:31:39;99947.18;;;20.22;46.30
37291;BME280;23175;-33.706;151.094;2022-12-29T03:34:12;99948.25;;;19.04;48.30
37291;BME280;23175;-33.706;151.094;2022-12-29T03:36:48;99941.79;;;18.48;48.81
37291;BME280;23175;-33.706;151.094;2022-12-29T03:39:22;99942.21;;;20.30;45.63
37291;BME280;23175;-33.706;151.094;2022-12-29T03:42:01;99947.09;;;20.88;45.22
37291;BME280;23175;-33.706;151.094;2022-12-29T03:44:36;99956.65;;;18.48;48.22
37291;BME280;23175;-33.706;151.094;2022-12-29T03:47:09;99960.26;;;19.77;46.07
37291;BME280;23175;-33.706;151.094;2022-12-29T03:49:40;99961.68;;;20.44;45.60
37291;BME280;23175;-33.706;151.094;2022-12-29T03:52:10;99962.63;;;17.91;48.59
37291;BME280;23175;-33.706;151.094;2022-12-29T03:54:40;99961.90;;;20.83;45.42
37291;BME280;23175;-33.706;151.094;2022-12-29T03:57:11;99964.30;;;20.10;46.68
37291;BME280;23175;-33.706;151.094;2022-12-29T03:59:40;99959.46;;;21.05;44.16
37291;BME280;23175;-33.706;151.094;2022-12-29T04:02:11;99958.72;;;18.69;47.26
37291;BME280;23175;-33.706;151.094;2022-12-29T04:04:40;99952.87;;;19.02;47.21
37291;BME280;23175;-33.706;151.094;2022-12-29T04:07:10;99943.99;;;21.57;43.46
37291;BME280;23175;-33.706;151.094;2022-12-29T04:09:40;99939.83;;;21.16;43.84
37291;BME280;23175;-33.706;151.094;2022-12-29T04:12:10;99934.74;;;20.92;43.97
37291;BME280;23175;-33.706;151.094;2022-12-29T04:14:40;99933.72;;;21.51;43.56
37291;BME280;23175;-33.706;151.094;2022-12-29T04:17:11;99936.19;;;23.33;41.59
37291;BME280;23175;-33.706;151.094;2022-12-29T04:19:41;99935.00;;;19.47;46.37
37291;BME280;23175;-33.706;151.094;2022-12-29T04:22:11;99932.14;;;20.24;45.61
37291;BME280;23175;-33.706;151.094;2022-12-29T04:24:41;99924.42;;;22.75;41.88
37291;BME280;23175;-33.706;151.094;2022-12-29T04:27:12;99925.29;;;22.20;43.55
37291;BME280;23175;-33.706;151.094;2022-12-29T04:29:42;99925.38;;;20.89;44.92
37291;BME280;23175;-33.706;151.094;2022-12-29T04:32:12;99929.58;;;22.94;41.33
37291;BME280;23175;-33.706;151.094;2022-12-29T04:34:42;99923.26;;;21.44;43.64
37291;BME280;23175;-33.706;151.094;2022-12-29T04:37:12;99927.24;;;22.64;41.79
37291;BME280;23175;-33.706;151.094;2022-12-29T04:39:42;99928.73;;;21.81;42.66
37291;BME280;23175;-33.706;151.094;2022-12-29T04:42:13;99930.08;;;23.07;41.67
37291;BME280;23175;-33.706;151.094;2022-12-29T04:44:43;99931.04;;;20.84;44.41
37291;BME280;23175;-33.706;151.094;2022-12-29T04:47:14;99930.04;;;21.64;43.46
37291;BME280;23175;-33.706;151.094;2022-12-29T04:49:44;99937.84;;;23.32;41.25
37291;BME280;23175;-33.706;151.094;2022-12-29T04:52:14;99940.50;;;20.20;45.14
37291;BME280;23175;-33.706;151.094;2022-12-29T04:54:44;99944.38;;;23.45;40.08
37291;BME280;23175;-33.706;151.094;2022-12-29T04:57:15;99937.23;;;21.78;43.33
37291;BME280;23175;-33.706;151.094;2022-12-29T04:59:45;99928.11;;;22.90;41.53
37291;BME280;23175;-33.706;151.094;2022-12-29T05:02:15;99924.94;;;22.79;41.44
37291;BME280;23175;-33.706;151.094;2022-12-29T05:04:45;99918.83;;;22.35;41.50
37291;BME280;23175;-33.706;151.094;2022-12-29T05:07:15;99913.38;;;22.81;41.78
37291;BME280;23175;-33.706;151.094;2022-12-29T05:09:45;99913.93;;;23.17;41.13
37291;BME280;23175;-33.706;151.094;2022-12-29T05:12:15;99913.03;;;23.01;41.70
37291;BME280;23175;-33.706;151.094;2022-12-29T05:14:45;99913.50;;;22.92;40.61
37291;BME280;23175;-33.706;151.094;2022-12-29T05:17:15;99908.76;;;24.36;39.67
37291;BME280;23175;-33.706;151.094;2022-12-29T05:19:45;99908.92;;;22.72;41.31
37291;BME280;23175;-33.706;151.094;2022-12-29T05:22:15;99905.72;;;21.79;42.46
37291;BME280;23175;-33.706;151.094;2022-12-29T05:24:45;99903.77;;;21.85;42.01
37291;BME280;23175;-33.706;151.094;2022-12-29T05:27:20;99901.92;;;21.39;43.89
37291;BME280;23175;-33.706;151.094;2022-12-29T05:29:55;99908.08;;;22.44;42.53
37291;BME280;23175;-33.706;151.094;2022-12-29T05:32:25;99911.13;;;23.38;40.55
37291;BME280;23175;-33.706;151.094;2022-12-29T05:34:56;99911.13;;;21.78;42.48
37291;BME280;23175;-33.706;151.094;2022-12-29T05:37:26;99918.10;;;23.07;41.00
37291;BME280;23175;-33.706;151.094;2022-12-29T05:40:01;99922.42;;;23.58;40.31
37291;BME280;23175;-33.706;151.094;2022-12-29T05:42:31;99930.61;;;23.33;40.24
37291;BME280;23175;-33.706;151.094;2022-12-29T05:45:01;99936.95;;;22.87;41.14
37291;BME280;23175;-33.706;151.094;2022-12-29T05:47:31;99935.00;;;22.13;42.03
37291;BME280;23175;-33.706;151.094;2022-12-29T05:50:01;99929.75;;;21.01;44.14
37291;BME280;23175;-33.706;151.094;2022-12-29T05:52:31;99929.23;;;23.91;40.19
37291;BME280;23175;-33.706;151.094;2022-12-29T05:55:01;99933.82;;;23.50;40.07
37291;BME280;23175;-33.706;151.094;2022-12-29T05:57:36;99935.00;;;23.62;40.28
37291;BME280;23175;-33.706;151.094;2022-12-29T06:00:07;99928.38;;;23.27;40.84
37291;BME280;23175;-33.706;151.094;2022-12-29T06:02:37;99924.57;;;22.49;41.46
37291;BME280;23175;-33.706;151.094;2022-12-29T06:05:08;99921.28;;;20.37;43.88
37291;BME280;23175;-33.706;151.094;2022-12-29T06:07:38;99920.70;;;22.99;40.74
37291;BME280;23175;-33.706;151.094;2022-12-29T06:10:09;99913.84;;;22.13;41.95
37291;BME280;23175;-33.706;151.094;2022-12-29T06:12:39;99914.72;;;21.78;42.53
37291;BME280;23175;-33.706;151.094;2022-12-29T06:15:10;99916.91;;;23.71;40.50
37291;BME280;23175;-33.706;151.094;2022-12-29T06:17:45;99912.88;;;22.18;41.80
37291;BME280;23175;-33.706;151.094;2022-12-29T06:20:16;99903.60;;;21.86;42.62
37291;BME280;23175;-33.706;151.094;2022-12-29T06:22:45;99897.72;;;21.70;43.05
37291;BME280;23175;-33.706;151.094;2022-12-29T06:25:16;99898.10;;;22.15;42.31
37291;BME280;23175;-33.706;151.094;2022-12-29T06:27:46;99901.56;;;21.51;43.67
37291;BME280;23175;-33.706;151.094;2022-12-29T06:30:17;99899.66;;;22.96;41.97
37291;BME280;23175;-33.706;151.094;2022-12-29T06:32:47;99897.71;;;23.03;41.43
37291;BME280;23175;-33.706;151.094;2022-12-29T06:35:17;99901.53;;;23.51;41.15
37291;BME280;23175;-33.706;151.094;2022-12-29T06:37:48;99900.69;;;22.59;41.49
37291;BME280;23175;-33.706;151.094;2022-12-29T06:40:19;99903.55;;;23.08;40.51
37291;BME280;23175;-33.706;151.094;2022-12-29T06:42:49;99901.67;;;23.61;40.15
37291;BME280;23175;-33.706;151.094;2022-12-29T06:45:19;99898.66;;;21.34;42.21
37291;BME280;23175;-33.706;151.094;2022-12-29T06:47:49;99899.93;;;23.13;41.13
37291;BME280;23175;-33.706;151.094;2022-12-29T06:50:19;99900.69;;;22.88;41.12
37291;BME280;23175;-33.706;151.094;2022-12-29T06:52:54;99901.59;;;22.89;41.81
37291;BME280;23175;-33.706;151.094;2022-12-29T06:55:24;99910.32;;;21.88;42.50
37291;BME280;23175;-33.706;151.094;2022-12-29T06:57:56;99923.77;;;23.53;40.45
37291;BME280;23175;-33.706;151.094;2022-12-29T07:00:27;99926.14;;;20.63;44.45
37291;BME280;23175;-33.706;151.094;2022-12-29T07:02:57;99926.81;;;19.17;47.74
37291;BME280;23175;-33.706;151.094;2022-12-29T07:05:28;99925.20;;;21.47;44.12
37291;BME280;23175;-33.706;151.094;2022-12-29T07:08:03;99930.81;;;21.12;44.59
37291;BME280;23175;-33.706;151.094;2022-12-29T07:10:33;99933.00;;;21.67;44.37
37291;BME280;23175;-33.706;151.094;2022-12-29T07:13:03;99938.76;;;23.09;42.01
37291;BME280;23175;-33.706;151.094;2022-12-29T07:15:33;99944.84;;;23.03;42.74
37291;BME280;23175;-33.706;151.094;2022-12-29T07:18:03;99951.93;;;22.04;43.79
37291;BME280;23175;-33.706;151.094;2022-12-29T07:20:34;99962.27;;;20.72;45.51
37291;BME280;23175;-33.706;151.094;2022-12-29T07:23:04;99967.48;;;20.85;45.50
37291;BME280;23175;-33.706;151.094;2022-12-29T07:25:34;99971.59;;;20.96;45.40
37291;BME280;23175;-33.706;151.094;2022-12-29T07:28:05;99977.45;;;20.23;46.09
37291;BME280;23175;-33.706;151.094;2022-12-29T07:30:38;99975.61;;;21.02;45.43
37291;BME280;23175;-33.706;151.094;2022-12-29T07:33:08;99979.57;;;20.69;45.83
37291;BME280;23175;-33.706;151.094;2022-12-29T07:35:38;99987.36;;;20.00;47.50
37291;BME280;23175;-33.706;151.094;2022-12-29T07:38:08;99992.34;;;20.01;48.65
37291;BME280;23175;-33.706;151.094;2022-12-29T07:40:38;99999.11;;;20.09;48.59
37291;BME280;23175;-33.706;151.094;2022-12-29T07:43:08;99999.35;;;19.82;48.02
37291;BME280;23175;-33.706;151.094;2022-12-29T07:45:38;100007.53;;;19.80;49.02
37291;BME280;23175;-33.706;151.094;2022-12-29T07:48:08;100009.00;;;18.64;51.42
37291;BME280;23175;-33.706;151.094;2022-12-29T07:50:38;100008.70;;;19.34;49.50
37291;BME280;23175;-33.706;151.094;2022-12-29T07:53:08;100007.08;;;18.92;50.02
37291;BME280;23175;-33.706;151.094;2022-12-29T07:55:38;100008.40;;;17.49;52.61
37291;BME280;23175;-33.706;151.094;2022-12-29T07:58:08;100004.66;;;19.93;49.21
37291;BME280;23175;-33.706;151.094;2022-12-29T08:00:40;100005.50;;;19.44;49.99
37291;BME280;23175;-33.706;151.094;2022-12-29T08:03:10;100006.20;;;19.71;48.56
37291;BME280;23175;-33.706;151.094;2022-12-29T08:05:40;100010.41;;;20.25;48.09
37291;BME280;23175;-33.706;151.094;2022-12-29T08:08:10;100014.01;;;20.28;47.81
37291;BME280;23175;-33.706;151.094;2022-12-29T08:10:40;100012.06;;;21.58;45.66
37291;BME280;23175;-33.706;151.094;2022-12-29T08:13:10;100014.75;;;20.86;46.17
37291;BME280;23175;-33.706;151.094;2022-12-29T08:15:40;100017.88;;;17.38;51.90
37291;BME280;23175;-33.706;151.094;2022-12-29T08:18:12;100021.82;;;18.06;50.86
37291;BME280;23175;-33.706;151.094;2022-12-29T08:20:42;100026.02;;;20.35;47.21
37291;BME280;23175;-33.706;151.094;2022-12-29T08:23:13;100025.98;;;18.41;50.01
37291;BME280;23175;-33.706;151.094;2022-12-29T08:25:43;100024.11;;;19.06;49.10
37291;BME280;23175;-33.706;151.094;2022-12-29T08:28:14;100025.74;;;18.50;49.75
37291;BME280;23175;-33.706;151.094;2022-12-29T08:30:44;100024.22;;;16.29;54.42
37291;BME280;23175;-33.706;151.094;2022-12-29T08:33:15;100017.52;;;18.89;50.04
37291;BME280;23175;-33.706;151.094;2022-12-29T08:35:45;100013.06;;;19.80;48.32
37291;BME280;23175;-33.706;151.094;2022-12-29T08:38:16;100020.59;;;19.09;49.12
37291;BME280;23175;-33.706;151.094;2022-12-29T08:40:46;100030.57;;;19.96;47.61
37291;BME280;23175;-33.706;151.094;2022-12-29T08:43:16;100030.94;;;20.14;47.17
37291;BME280;23175;-33.706;151.094;2022-12-29T08:45:46;100027.51;;;20.26;47.08
37291;BME280;23175;-33.706;151.094;2022-12-29T08:48:16;100030.58;;;19.07;48.76
37291;BME280;23175;-33.706;151.094;2022-12-29T08:50:46;100039.01;;;20.01;47.42
37291;BME280;23175;-33.706;151.094;2022-12-29T08:53:16;100049.95;;;20.40;46.70
37291;BME280;23175;-33.706;151.094;2022-12-29T08:55:47;100046.17;;;19.32;48.76
37291;BME280;23175;-33.706;151.094;2022-12-29T08:58:17;100045.43;;;19.15;50.30
37291;BME280;23175;-33.706;151.094;2022-12-29T09:00:47;100049.14;;;17.09;53.70
37291;BME280;23175;-33.706;151.094;2022-12-29T09:03:17;100051.53;;;19.75;48.76
37291;BME280;23175;-33.706;151.094;2022-12-29T09:05:49;100049.55;;;19.45;50.39
37291;BME280;23175;-33.706;151.094;2022-12-29T09:24:08;100091.15;;;20.50;46.88
37291;BME280;23175;-33.706;151.094;2022-12-29T09:26:38;100096.26;;;19.84;47.65
37291;BME280;23175;-33.706;151.094;2022-12-29T09:29:08;100096.66;;;20.63;46.36
37291;BME280;23175;-33.706;151.094;2022-12-29T09:31:38;100091.71;;;18.98;49.01
37291;BME280;23175;-33.706;151.094;2022-12-29T09:34:08;100093.78;;;20.91;46.07
37291;BME280;23175;-33.706;151.094;2022-12-29T09:36:38;100102.44;;;18.74;49.44
37291;BME280;23175;-33.706;151.094;2022-12-29T09:39:08;100112.64;;;20.31;46.90
37291;BME280;23175;-33.706;151.094;2022-12-29T09:41:43;100118.01;;;19.12;48.65
37291;BME280;23175;-33.706;151.094;2022-12-29T09:44:22;100113.54;;;21.01;46.77
37291;BME280;23175;-33.706;151.094;2022-12-29T09:46:55;100106.74;;;21.00;45.69
37291;BME280;23175;-33.706;151.094;2022-12-29T09:49:31;100109.12;;;19.30;48.29
37291;BME280;23175;-33.706;151.094;2022-12-29T09:52:08;100111.66;;;19.66;47.49
37291;BME280;23175;-33.706;151.094;2022-12-29T09:54:50;100109.85;;;19.49;47.72
37291;BME280;23175;-33.706;151.094;2022-12-29T09:57:26;100106.50;;;17.58;50.93
37291;BME280;23175;-33.706;151.094;2022-12-29T10:00:00;100112.71;;;20.24;47.32
37291;BME280;23175;-33.706;151.094;2022-12-29T10:02:38;100121.48;;;18.27;49.79
37291;BME280;23175;-33.706;151.094;2022-12-29T10:05:28;100126.84;;;18.54;49.89
37291;BME280;23175;-33.706;151.094;2022-12-29T10:08:14;100131.03;;;20.39;47.74
37291;BME280;23175;-33.706;151.094;2022-12-29T10:10:53;100130.65;;;19.35;49.46
37291;BME280;23175;-33.706;151.094;2022-12-29T10:13:38;100130.38;;;18.90;48.14
37291;BME280;23175;-33.706;151.094;2022-12-29T10:16:16;100134.31;;;19.39;48.91
37291;BME280;23175;-33.706;151.094;2022-12-29T10:19:26;100129.98;;;17.96;51.87
37291;BME280;23175;-33.706;151.094;2022-12-29T10:22:06;100121.76;;;18.20;51.51
37291;BME280;23175;-33.706;151.094;2022-12-29T10:24:40;100119.71;;;17.76;52.38
37291;BME280;23175;-33.706;151.094;2022-12-29T10:27:13;100121.52;;;19.67;49.91
37291;BME280;23175;-33.706;151.094;2022-12-29T10:29:48;100122.75;;;19.48;49.55
37291;BME280;23175;-33.706;151.094;2022-12-29T10:32:27;100124.78;;;19.62;49.77
37291;BME280;23175;-33.706;151.094;2022-12-29T10:35:03;100125.18;;;20.57;47.75
37291;BME280;23175;-33.706;151.094;2022-12-29T10:37:42;100125.35;;;18.37;51.30
37291;BME280;23175;-33.706;151.094;2022-12-29T10:40:22;100126.98;;;19.04;50.30
37291;BME280;23175;-33.706;151.094;2022-12-29T10:42:55;100129.73;;;19.54;49.37
37291;BME280;23175;-33.706;151.094;2022-12-29T10:45:32;100132.75;;;20.14;48.07
37291;BME280;23175;-33.706;151.094;2022-12-29T10:48:05;100131.79;;;20.00;47.77
37291;BME280;23175;-33.706;151.094;2022-12-29T10:50:36;100132.58;;;19.30;49.43
37291;BME280;23175;-33.706;151.094;2022-12-29T10:53:07;100136.26;;;18.65;50.86
37291;BME280;23175;-33.706;151.094;2022-12-29T10:55:43;100139.50;;;21.14;46.88
37291;BME280;23175;-33.706;151.094;2022-12-29T10:58:15;100140.02;;;19.74;49.11
37291;BME280;23175;-33.706;151.094;2022-12-29T11:00:50;100136.70;;;21.01;45.86
37291;BME280;23175;-33.706;151.094;2022-12-29T11:03:48;100139.05;;;19.24;48.78
37291;BME280;23175;-33.706;151.094;2022-12-29T11:06:25;100142.35;;;20.72;46.96
37291;BME280;23175;-33.706;151.094;2022-12-29T11:08:58;100143.17;;;21.45;45.22
37291;BME280;23175;-33.706;151.094;2022-12-29T11:11:35;100147.14;;;20.10;47.84
37291;BME280;23175;-33.706;151.094;2022-12-29T11:14:13;100142.76;;;18.65;49.96
37291;BME280;23175;-33.706;151.094;2022-12-29T11:20:34;100121.95;;;18.43;50.08
37291;BME280;23175;-33.706;151.094;2022-12-29T11:23:20;100122.76;;;17.25;52.17
37291;BME280;23175;-33.706;151.094;2022-12-29T11:26:08;100127.96;;;19.92;48.17
37291;BME280;23175;-33.706;151.094;2022-12-29T11:28:44;100127.27;;;21.73;45.44
37291;BME280;23175;-33.706;151.094;2022-12-29T11:31:18;100122.59;;;21.44;45.88
37291;BME280;23175;-33.706;151.094;2022-12-29T11:33:51;100120.78;;;20.51;46.65
37291;BME280;23175;-33.706;151.094;2022-12-29T11:36:24;100119.70;;;19.69;47.56
37291;BME280;23175;-33.706;151.094;2022-12-29T11:38:55;100117.84;;;21.20;45.78
37291;BME280;23175;-33.706;151.094;2022-12-29T11:41:27;100113.91;;;18.09;50.67
37291;BME280;23175;-33.706;151.094;2022-12-29T11:44:00;100110.62;;;21.32;46.37
37291;BME280;23175;-33.706;151.094;2022-12-29T11:46:36;100115.09;;;18.80;49.09
37291;BME280;23175;-33.706;151.094;2022-12-29T11:49:10;100120.51;;;20.35;47.03
37291;BME280;23175;-33.706;151.094;2022-12-29T11:51:45;100122.08;;;21.31;45.46
37291;BME280;23175;-33.706;151.094;2022-12-29T11:54:19;100121.38;;;21.00;45.77
37291;BME280;23175;-33.706;151.094;2022-12-29T11:56:51;100119.75;;;18.93;49.16
37291;BME280;23175;-33.706;151.094;2022-12-29T11:59:42;100121.46;;;20.85;46.31
37291;BME280;23175;-33.706;151.094;2022-12-29T12:02:40;100122.03;;;22.25;44.45
37291;BME280;23175;-33.706;151.094;2022-12-29T12:05:20;100123.60;;;18.05;50.29
37291;BME280;23175;-33.706;151.094;2022-12-29T12:07:56;100126.80;;;20.18;47.46
37291;BME280;23175;-33.706;151.094;2022-12-29T12:10:31;100124.45;;;20.05;46.92
37291;BME280;23175;-33.706;151.094;2022-12-29T12:13:11;100125.70;;;18.85;49.12
37291;BME280;23175;-33.706;151.094;2022-12-29T12:15:52;100130.13;;;20.57;46.54
37291;BME280;23175;-33.706;151.094;2022-12-29T12:18:37;100125.78;;;21.41;44.81
37291;BME280;23175;-33.706;151.094;2022-12-29T12:21:18;100128.84;;;21.51;45.21
37291;BME280;23175;-33.706;151.094;2022-12-29T12:24:04;100128.61;;;21.95;44.40
37291;BME280;23175;-33.706;151.094;2022-12-29T12:26:42;100135.37;;;19.14;49.08
37291;BME280;23175;-33.706;151.094;2022-12-29T12:29:19;100139.11;;;21.69;44.93
37291;BME280;23175;-33.706;151.094;2022-12-29T12:31:55;100140.63;;;20.97;45.31
37291;BME280;23175;-33.706;151.094;2022-12-29T12:34:30;100141.44;;;21.76;43.92
37291;BME280;23175;-33.706;151.094;2022-12-29T12:37:29;100142.68;;;22.15;43.64
37291;BME280;23175;-33.706;151.094;2022-12-29T12:40:19;100142.07;;;21.23;44.97
37291;BME280;23175;-33.706;151.094;2022-12-29T12:43:01;100140.69;;;21.92;44.00
37291;BME280;23175;-33.706;151.094;2022-12-29T12:45:45;100139.85;;;20.00;47.54
37291;BME280;23175;-33.706;151.094;2022-12-29T12:48:33;100136.32;;;18.31;50.25
37291;BME280;23175;-33.706;151.094;2022-12-29T12:51:14;100130.25;;;20.64;47.10
37291;BME280;23175;-33.706;151.094;2022-12-29T12:54:11;100123.86;;;21.07;45.72
37291;BME280;23175;-33.706;151.094;2022-12-29T12:56:57;100116.80;;;22.23;44.32
37291;BME280;23175;-33.706;151.094;2022-12-29T12:59:40;100110.40;;;21.61;45.35
37291;BME280;23175;-33.706;151.094;2022-12-29T13:02:22;100113.30;;;20.78;47.06
37291;BME280;23175;-33.706;151.094;2022-12-29T13:05:13;100108.13;;;20.88;46.55
37291;BME280;23175;-33.706;151.094;2022-12-29T13:07:54;100104.13;;;20.12;47.53
37291;BME280;23175;-33.706;151.094;2022-12-29T13:10:35;100102.82;;;17.59;51.64
37291;BME280;23175;-33.706;151.094;2022-12-29T13:13:34;100097.14;;;18.87;51.44
37291;BME280;23175;-33.706;151.094;2022-12-29T13:16:15;100091.67;;;17.66;52.14
37291;BME280;23175;-33.706;151.094;2022-12-29T13:18:55;100091.44;;;20.34;48.43
37291;BME280;23175;-33.706;151.094;2022-12-29T13:21:37;100089.89;;;20.89;47.49